createdAt,value
2019-03-22T00:02:18.627Z,-21501.61
2019-03-22T00:04:46.883Z,-21481.45
2019-03-22T00:07:15.778Z,-21526.92
2019-03-22T00:09:44.048Z,-21530.14
2019-03-22T00:12:12.380Z,-21547.59
2019-03-22T00:14:40.587Z,-21541.31
2019-03-22T00:17:08.881Z,-21545.64
2019-03-22T00:19:37.153Z,-21541.17
2019-03-22T00:22:05.414Z,-21538.93
2019-03-22T00:24:33.708Z,-21527.90
2019-03-22T00:27:01.975Z,-21514.48
2019-03-22T00:29:30.268Z,-21531.81
2019-03-22T00:31:58.532Z,-21550.52
2019-03-22T00:34:26.830Z,-21528.74
2019-03-22T00:36:55.114Z,-21503.01
2019-03-22T00:39:24.361Z,-21521.19
2019-03-22T00:41:52.653Z,-21509.87
2019-03-22T00:44:20.965Z,-21510.99
2019-03-22T00:46:49.233Z,-21501.75
2019-03-22T00:49:17.601Z,-21490.84
2019-03-22T00:51:45.881Z,-21503.57
2019-03-22T00:54:14.230Z,-21516.58
2019-03-22T00:56:43.202Z,-21491.68
2019-03-22T00:59:11.501Z,-21504.55
2019-03-22T01:01:39.866Z,-21502.17
2019-03-22T01:04:08.128Z,-21482.71
2019-03-22T01:06:36.567Z,-21487.90
2019-03-22T01:09:05.915Z,-21473.19
2019-03-22T01:11:34.241Z,-21475.29
2019-03-22T01:14:02.555Z,-21497.98
2019-03-22T01:16:30.877Z,-21499.93
2019-03-22T01:18:59.213Z,-21521.47
2019-03-22T01:21:27.472Z,-21529.30
2019-03-22T01:23:55.787Z,-21522.87
2019-03-22T01:26:24.051Z,-21539.08
2019-03-22T01:28:52.348Z,-21557.08
2019-03-22T01:31:20.606Z,-21572.43
2019-03-22T01:33:48.872Z,-21569.91
2019-03-22T01:36:17.171Z,-21565.31
2019-03-22T01:38:45.433Z,-21563.91
2019-03-22T01:41:13.776Z,-21558.06
2019-03-22T01:43:42.049Z,-21558.61
2019-03-22T01:46:10.328Z,-21571.17
2019-03-22T01:48:38.596Z,-21565.17
2019-03-22T01:51:06.855Z,-21571.87
2019-03-22T01:53:35.154Z,-21550.94
2019-03-22T01:56:03.411Z,-21554.71
2019-03-22T01:58:31.784Z,-21558.34
2019-03-22T02:01:00.154Z,-21566.15
2019-03-22T02:03:28.414Z,-21564.05
2019-03-22T02:05:56.705Z,-21571.45
2019-03-22T02:08:24.983Z,-21584.97
2019-03-22T02:10:53.252Z,-21571.31
2019-03-22T02:13:21.539Z,-21561.82
2019-03-22T02:15:49.795Z,-21551.92
2019-03-22T02:18:18.047Z,-21542.84
2019-03-22T02:20:46.324Z,-21558.20
2019-03-22T02:23:14.590Z,-21582.73
2019-03-22T02:25:42.851Z,-21572.29
2019-03-22T02:28:11.222Z,-21564.47
2019-03-22T02:30:39.486Z,-21550.52
2019-03-22T02:33:07.748Z,-21528.04
2019-03-22T02:35:36.022Z,-21552.34
2019-03-22T02:38:04.362Z,-21550.67
2019-03-22T02:40:32.630Z,-21552.48
2019-03-22T02:43:00.873Z,-21553.04
2019-03-22T02:45:29.153Z,-21551.64
2019-03-22T02:47:57.387Z,-21566.57
2019-03-22T02:50:25.653Z,-21569.08
2019-03-22T02:52:54.019Z,-21563.63
2019-03-22T02:55:22.294Z,-21562.66
2019-03-22T02:57:50.554Z,-21550.39
2019-03-22T03:00:19.292Z,-21559.04
2019-03-22T03:02:47.545Z,-21532.09
2019-03-22T03:05:17.273Z,-21543.54
2019-03-22T03:07:48.377Z,-21530.70
2019-03-22T03:10:17.034Z,-21547.32
2019-03-22T03:12:45.402Z,-21538.93
2019-03-22T03:15:17.650Z,-21542.00
2019-03-22T03:17:46.043Z,-21530.00
2019-03-22T03:20:16.925Z,-21501.47
2019-03-22T03:22:46.526Z,-21521.05
2019-03-22T03:25:15.249Z,-21530.00
2019-03-22T03:27:43.528Z,-21507.49
2019-03-22T03:30:20.717Z,-21528.32
2019-03-22T03:32:49.186Z,-21540.33
2019-03-22T03:35:17.980Z,-21527.76
2019-03-22T03:37:46.218Z,-21504.27
2019-03-22T03:40:15.138Z,-21512.11
2019-03-22T03:42:43.480Z,-21500.07
2019-03-22T03:45:20.593Z,-21512.80
2019-03-22T03:47:48.962Z,-21531.39
2019-03-22T03:50:17.242Z,-21525.52
2019-03-22T03:52:45.524Z,-21488.04
2019-03-22T03:55:13.860Z,-21504.69
2019-03-22T03:57:42.162Z,-21511.82
2019-03-22T04:00:10.473Z,-21522.17
2019-03-22T04:02:38.752Z,-21524.27
2019-03-22T04:05:07.183Z,-21544.80
2019-03-22T04:07:35.447Z,-21536.00
2019-03-22T04:10:07.193Z,-21528.32
2019-03-22T04:12:35.438Z,-21498.11
2019-03-22T04:15:07.273Z,-21510.43
2019-03-22T04:17:35.620Z,-21493.92
2019-03-22T04:20:05.709Z,-21515.32
2019-03-22T04:22:36.369Z,-21502.31
2019-03-22T04:25:05.917Z,-21514.34
2019-03-22T04:27:34.167Z,-21511.68
2019-03-22T04:30:02.434Z,-21514.34
2019-03-22T04:32:30.707Z,-21484.25
2019-03-22T04:34:58.979Z,-21485.23
2019-03-22T04:37:27.236Z,-21493.22
2019-03-22T04:39:55.494Z,-21497.84
2019-03-22T04:42:23.751Z,-21502.87
2019-03-22T04:44:52.035Z,-21511.68
2019-03-22T04:47:21.575Z,-21516.16
2019-03-22T04:49:50.393Z,-21513.64
2019-03-22T04:52:19.927Z,-21511.68
2019-03-22T04:54:49.570Z,-21483.55
2019-03-22T04:57:18.117Z,-21489.02
2019-03-22T04:59:47.458Z,-21472.07
2019-03-22T05:02:15.811Z,-21503.01
2019-03-22T05:04:45.308Z,-21509.73
2019-03-22T05:07:13.971Z,-21512.95
2019-03-22T05:09:43.012Z,-21499.09
2019-03-22T05:12:14.146Z,-21484.53
2019-03-22T05:14:42.452Z,-21476.70
2019-03-22T05:17:10.900Z,-21484.39
2019-03-22T05:19:42.155Z,-21470.53
2019-03-22T05:22:11.937Z,-21480.62
2019-03-22T05:24:41.581Z,-21491.68
2019-03-22T05:27:10.638Z,-21486.07
2019-03-22T05:29:39.523Z,-21495.04
2019-03-22T05:34:35.991Z,-21472.21
2019-03-22T05:37:05.023Z,-21479.21
2019-03-22T05:39:33.288Z,-21485.80
2019-03-22T05:42:01.575Z,-21482.43
2019-03-22T05:44:29.914Z,-21482.58
2019-03-22T05:46:58.551Z,-21456.51
2019-03-22T05:49:26.827Z,-21494.05
2019-03-22T05:51:55.093Z,-21492.24
2019-03-22T05:54:23.350Z,-21486.64
2019-03-22T05:56:51.613Z,-21480.20
2019-03-22T05:59:19.961Z,-21479.07
2019-03-22T06:01:48.248Z,-21482.01
2019-03-22T06:04:16.505Z,-21490.70
2019-03-22T06:06:44.776Z,-21475.43
2019-03-22T06:09:13.029Z,-21473.61
2019-03-22T06:11:41.315Z,-21486.91
2019-03-22T06:14:09.631Z,-21482.58
2019-03-22T06:16:37.907Z,-21474.03
2019-03-22T06:19:06.170Z,-21491.40
2019-03-22T06:21:34.429Z,-21479.49
2019-03-22T06:24:02.736Z,-21469.69
2019-03-22T06:26:30.999Z,-21449.50
2019-03-22T06:28:59.314Z,-21428.72
2019-03-22T06:31:27.607Z,-21435.61
2019-03-22T06:33:55.875Z,-21474.31
2019-03-22T06:36:24.313Z,-21476.83
2019-03-22T06:38:52.567Z,-21492.38
2019-03-22T06:41:20.824Z,-21498.95
2019-03-22T06:43:49.088Z,-21508.19
2019-03-22T06:46:17.362Z,-21515.60
2019-03-22T06:48:45.627Z,-21494.62
2019-03-22T06:51:13.914Z,-21503.43
2019-03-22T06:53:42.177Z,-21514.62
2019-03-22T06:56:10.421Z,-21532.65
2019-03-22T06:58:38.694Z,-21502.03
2019-03-22T07:01:06.950Z,-21484.68
2019-03-22T07:03:35.228Z,-21495.32
2019-03-22T07:06:03.500Z,-21492.80
2019-03-22T07:08:31.888Z,-21517.14
2019-03-22T07:11:00.153Z,-21523.84
2019-03-22T07:13:28.428Z,-21527.06
2019-03-22T07:15:56.762Z,-21519.94
2019-03-22T07:18:25.081Z,-21526.64
2019-03-22T07:20:53.315Z,-21514.20
2019-03-22T07:23:21.595Z,-21520.07
2019-03-22T07:25:49.875Z,-21524.96
2019-03-22T07:28:18.190Z,-21520.91
2019-03-22T07:30:46.496Z,-21547.73
2019-03-22T07:33:14.763Z,-21553.32
2019-03-22T07:35:43.281Z,-21531.12
2019-03-22T07:38:11.622Z,-21542.84
2019-03-22T07:40:39.887Z,-21551.78
2019-03-22T07:43:10.341Z,-21525.38
2019-03-22T07:45:38.678Z,-21553.45
2019-03-22T07:48:06.942Z,-21533.49
2019-03-22T07:50:35.198Z,-21546.20
2019-03-22T07:53:03.469Z,-21554.43
2019-03-22T07:55:31.743Z,-21564.47
2019-03-22T07:58:00.009Z,-21572.84
2019-03-22T08:00:31.087Z,-21572.43
2019-03-22T08:02:58.322Z,-21576.46
2019-03-22T08:05:26.695Z,-21576.46
2019-03-22T08:07:56.089Z,-21591.38
2019-03-22T08:10:24.690Z,-21587.75
2019-03-22T08:12:52.953Z,-21599.03
2019-03-22T08:15:29.771Z,-21589.01
2019-03-22T08:17:58.217Z,-21581.20
2019-03-22T08:20:26.599Z,-21569.78
2019-03-22T08:22:54.962Z,-21548.85
2019-03-22T08:25:23.246Z,-21531.54
2019-03-22T08:27:51.506Z,-21527.90
2019-03-22T08:30:19.794Z,-21539.64
2019-03-22T08:32:50.320Z,-21583.57
2019-03-22T08:35:18.045Z,-21599.03
2019-03-22T08:37:52.516Z,-21605.29
2019-03-22T08:40:16.333Z,-21610.72
2019-03-22T08:42:44.597Z,-21610.02
2019-03-22T08:45:13.142Z,-21602.09
2019-03-22T08:47:41.812Z,-21611.69
2019-03-22T08:50:10.154Z,-21585.11
2019-03-22T08:52:38.422Z,-21602.79
2019-03-22T08:55:06.835Z,-21612.53
2019-03-22T08:57:35.103Z,-21582.59
2019-03-22T09:00:05.273Z,-21577.44
2019-03-22T09:02:33.547Z,-21624.77
2019-03-22T09:05:02.158Z,-21629.77
2019-03-22T09:07:30.532Z,-21638.25
2019-03-22T09:09:58.817Z,-21639.91
2019-03-22T09:12:27.178Z,-21634.50
2019-03-22T09:14:55.399Z,-21629.49
2019-03-22T09:17:23.697Z,-21636.16
2019-03-22T09:19:51.954Z,-21629.35
2019-03-22T09:22:20.242Z,-21640.61
2019-03-22T09:24:48.505Z,-21645.05
2019-03-22T09:27:16.763Z,-21632.27
2019-03-22T09:29:47.313Z,-21615.59
2019-03-22T09:32:15.063Z,-21631.99
2019-03-22T09:34:43.318Z,-21670.72
2019-03-22T09:37:11.581Z,-21661.43
2019-03-22T09:39:39.890Z,-21665.31
2019-03-22T09:42:08.150Z,-21662.40
2019-03-22T09:44:43.380Z,-21662.81
2019-03-22T09:47:06.404Z,-21678.62
2019-03-22T09:49:34.683Z,-21670.30
2019-03-22T09:52:03.081Z,-21675.71
2019-03-22T09:54:31.364Z,-21657.55
2019-03-22T09:56:59.699Z,-21685.27
2019-03-22T09:59:27.970Z,-21695.93
2019-03-22T10:01:56.240Z,-21701.89
2019-03-22T10:04:24.575Z,-21697.18
2019-03-22T10:06:52.817Z,-21699.12
2019-03-22T10:09:21.039Z,-21693.72
2019-03-22T10:11:49.315Z,-21706.32
2019-03-22T10:14:17.669Z,-21688.46
2019-03-22T10:16:47.623Z,-21687.77
2019-03-22T10:19:15.970Z,-21684.16
2019-03-22T10:21:44.232Z,-21693.72
2019-03-22T10:24:12.493Z,-21661.57
2019-03-22T10:26:40.770Z,-21693.03
2019-03-22T10:29:09.122Z,-21685.69
2019-03-22T10:31:37.983Z,-21707.15
2019-03-22T10:34:06.422Z,-21690.68
2019-03-22T10:36:34.754Z,-21682.09
2019-03-22T10:39:04.450Z,-21717.11
2019-03-22T10:41:32.725Z,-21732.31
2019-03-22T10:44:01.044Z,-21720.29
2019-03-22T10:46:29.335Z,-21721.54
2019-03-22T10:48:57.541Z,-21717.39
2019-03-22T10:51:25.857Z,-21710.88
2019-03-22T10:53:54.195Z,-21717.95
2019-03-22T10:56:24.781Z,-21726.09
2019-03-22T10:58:52.439Z,-21733.70
2019-03-22T11:01:20.702Z,-21736.73
2019-03-22T11:03:49.153Z,-21763.23
2019-03-22T11:06:25.847Z,-21733.56
2019-03-22T11:08:47.725Z,-21742.67
2019-03-22T11:11:16.009Z,-21692.47
2019-03-22T11:13:44.281Z,-21688.46
2019-03-22T11:16:12.603Z,-21705.49
2019-03-22T11:18:40.860Z,-21710.61
2019-03-22T11:21:09.223Z,-21713.10
2019-03-22T11:23:37.492Z,-21723.47
2019-03-22T11:26:05.809Z,-21710.61
2019-03-22T11:28:34.063Z,-21707.98
2019-03-22T11:31:04.962Z,-21734.53
2019-03-22T11:33:32.341Z,-21707.42
2019-03-22T11:36:00.612Z,-21734.53
2019-03-22T11:38:28.949Z,-21753.16
2019-03-22T11:40:57.233Z,-21755.09
2019-03-22T11:43:25.672Z,-21729.27
2019-03-22T11:45:54.165Z,-21762.13
2019-03-22T11:48:22.594Z,-21763.23
2019-03-22T11:50:51.045Z,-21766.00
2019-03-22T11:53:19.344Z,-21747.78
2019-03-22T11:55:47.719Z,-21781.16
2019-03-22T11:58:16.001Z,-21822.57
2019-03-22T12:00:44.272Z,-21843.86
2019-03-22T12:03:12.574Z,-21847.97
2019-03-22T12:05:40.898Z,-21861.14
2019-03-22T12:08:09.121Z,-21849.34
2019-03-22T12:10:37.396Z,-21877.03
2019-03-22T12:13:05.727Z,-21893.18
2019-03-22T12:15:34.032Z,-21887.71
2019-03-22T12:18:02.420Z,-21854.96
2019-03-22T12:20:30.667Z,-21879.23
2019-03-22T12:22:58.980Z,-21886.75
2019-03-22T12:25:27.323Z,-21898.38
2019-03-22T12:27:55.585Z,-21892.50
2019-03-22T12:30:23.860Z,-21908.77
2019-03-22T12:32:52.217Z,-21892.50
2019-03-22T12:35:20.595Z,-21901.39
2019-03-22T12:37:48.847Z,-21934.86
2019-03-22T12:40:23.889Z,-21922.30
2019-03-22T12:42:52.153Z,-21888.53
2019-03-22T12:45:28.348Z,-21911.64
2019-03-22T12:47:56.619Z,-21963.07
2019-03-22T12:50:26.486Z,-21900.57
2019-03-22T12:52:54.779Z,-21929.26
2019-03-22T12:55:23.581Z,-21930.63
2019-03-22T12:57:51.855Z,-21931.86
2019-03-22T13:00:24.975Z,-21936.36
2019-03-22T13:02:53.689Z,-21986.75
2019-03-22T13:05:22.817Z,-21964.16
2019-03-22T13:07:51.531Z,-21910.42
2019-03-22T13:10:25.406Z,-21949.72
2019-03-22T13:12:53.797Z,-21958.99
2019-03-22T13:15:22.056Z,-21968.79
2019-03-22T13:17:50.344Z,-21956.54
2019-03-22T13:20:18.612Z,-21967.57
2019-03-22T13:22:46.897Z,-21962.39
2019-03-22T13:25:16.334Z,-21917.93
2019-03-22T13:27:44.605Z,-21953.27
2019-03-22T13:30:30.888Z,-21965.25
2019-03-22T13:32:59.604Z,-21906.04
2019-03-22T13:35:27.866Z,-21909.32
2019-03-22T13:37:56.125Z,-21930.36
2019-03-22T13:40:33.941Z,-21939.90
2019-03-22T13:43:10.752Z,-21944.13
2019-03-22T13:45:39.086Z,-21950.54
2019-03-22T13:48:07.332Z,-21935.68
2019-03-22T13:50:37.418Z,-21930.49
2019-03-22T13:53:05.701Z,-21944.68
2019-03-22T13:55:33.992Z,-21958.71
2019-03-22T13:58:02.292Z,-21909.73
2019-03-22T14:00:30.551Z,-21932.81
2019-03-22T14:03:03.115Z,-21945.36
2019-03-22T14:05:28.840Z,-21903.85
2019-03-22T14:07:57.145Z,-21858.13
2019-03-22T14:10:29.562Z,-21891.54
2019-03-22T14:12:59.596Z,-21902.34
2019-03-22T14:15:30.457Z,-21940.86
2019-03-22T14:17:58.799Z,-21946.59
2019-03-22T14:20:27.090Z,-21942.50
2019-03-22T14:22:55.372Z,-21916.97
2019-03-22T14:25:23.722Z,-21912.05
2019-03-22T14:27:52.654Z,-21861.82
2019-03-22T14:30:20.925Z,-21885.39
2019-03-22T14:32:49.226Z,-21865.80
2019-03-22T14:35:17.488Z,-21879.23
2019-03-22T14:37:45.752Z,-21881.42
2019-03-22T14:40:15.705Z,-21876.35
2019-03-22T14:42:44.233Z,-21877.58
2019-03-22T14:45:12.756Z,-21845.64
2019-03-22T14:47:41.049Z,-21897.43
2019-03-22T14:50:12.365Z,-21947.81
2019-03-22T14:52:40.637Z,-21975.19
2019-03-22T14:55:10.718Z,-22012.83
2019-03-22T14:57:48.162Z,-22054.30
2019-03-22T15:00:11.831Z,-22043.07
2019-03-22T15:02:40.102Z,-22069.85
2019-03-22T15:05:08.652Z,-22069.85
2019-03-22T15:07:36.937Z,-22092.55
2019-03-22T15:10:09.945Z,-22025.72
2019-03-22T15:12:38.296Z,-22006.86
2019-03-22T15:15:24.871Z,-22113.85
2019-03-22T15:18:03.271Z,-22149.78
2019-03-22T15:20:41.759Z,-22133.64
2019-03-22T15:23:13.408Z,-22089.71
2019-03-22T15:25:52.367Z,-22051.86
2019-03-22T15:28:24.674Z,-22095.11
2019-03-22T15:31:11.016Z,-22098.75
2019-03-22T15:33:46.881Z,-22130.28
2019-03-22T15:36:33.075Z,-22128.39
2019-03-22T15:39:19.379Z,-22128.66
2019-03-22T15:41:47.776Z,-22155.43
2019-03-22T15:44:16.143Z,-22122.07
2019-03-22T15:46:44.523Z,-22138.08
2019-03-22T15:49:12.789Z,-22138.08
2019-03-22T15:51:41.067Z,-22087.82
2019-03-22T15:54:09.365Z,-22149.38
2019-03-22T15:56:38.586Z,-22149.38
2019-03-22T15:59:06.913Z,-22107.79
2019-03-22T16:01:35.778Z,-22086.88
2019-03-22T16:04:04.114Z,-22086.88
2019-03-22T16:06:32.492Z,-22115.87
2019-03-22T16:09:00.825Z,-22105.77
2019-03-22T16:11:29.116Z,-22087.15
2019-03-22T16:13:57.378Z,-22075.80
2019-03-22T16:16:25.733Z,-22075.80
2019-03-22T16:18:53.994Z,-22088.90
2019-03-22T16:21:22.298Z,-22084.32
2019-03-22T16:23:50.596Z,-22106.44
2019-03-22T16:26:18.866Z,-22109.14
2019-03-22T16:28:47.151Z,-22067.70
2019-03-22T16:31:15.447Z,-22074.59
2019-03-22T16:33:43.731Z,-22037.11
2019-03-22T16:36:12.029Z,-22029.11
2019-03-22T16:38:40.316Z,-22010.80
2019-03-22T16:41:08.644Z,-22021.25
2019-03-22T16:43:36.965Z,-22028.43
2019-03-22T16:46:05.358Z,-21989.47
2019-03-22T16:48:33.662Z,-22033.31
2019-03-22T16:51:01.924Z,-22042.25
2019-03-22T16:53:30.248Z,-22048.07
2019-03-22T16:55:58.548Z,-21958.17
2019-03-22T16:58:26.840Z,-21900.03
2019-03-22T17:00:55.198Z,-21840.42
2019-03-22T17:03:23.471Z,-21839.33
2019-03-22T17:05:51.752Z,-21829.99
2019-03-22T17:08:20.158Z,-21833.70
2019-03-22T17:10:48.529Z,-21810.20
2019-03-22T17:13:16.840Z,-21851.68
2019-03-22T17:15:45.119Z,-21818.59
2019-03-22T17:18:15.055Z,-21836.86
2019-03-22T17:20:43.309Z,-21825.18
2019-03-22T17:23:11.586Z,-21823.53
2019-03-22T17:25:39.866Z,-21824.77
2019-03-22T17:28:08.154Z,-21827.79
2019-03-22T17:30:36.411Z,-21805.25
2019-03-22T17:33:08.062Z,-21831.37
2019-03-22T17:35:36.478Z,-21805.38
2019-03-22T17:38:04.823Z,-21830.82
2019-03-22T17:40:33.033Z,-21807.17
2019-03-22T17:43:01.323Z,-21803.46
2019-03-22T17:45:29.587Z,-21824.22
2019-03-22T17:47:57.849Z,-21786.25
2019-03-22T17:50:26.158Z,-21805.66
2019-03-22T17:52:54.433Z,-21790.80
2019-03-22T17:55:22.692Z,-21783.77
2019-03-22T17:57:50.984Z,-21771.23
2019-03-22T18:00:26.997Z,-21780.05
2019-03-22T18:02:55.325Z,-21774.27
2019-03-22T18:05:23.613Z,-21791.07
2019-03-22T18:07:51.894Z,-21805.93
2019-03-22T18:10:20.164Z,-21766.27
2019-03-22T18:12:48.549Z,-21779.23
2019-03-22T18:15:18.057Z,-21785.70
2019-03-22T18:17:46.542Z,-21779.64
2019-03-22T18:20:15.861Z,-21778.27
2019-03-22T18:22:44.128Z,-21755.37
2019-03-22T18:25:12.581Z,-21761.03
2019-03-22T18:27:40.878Z,-21766.54
2019-03-22T18:30:13.526Z,-21755.64
2019-03-22T18:32:41.821Z,-21757.44
2019-03-22T18:35:10.542Z,-21761.58
2019-03-22T18:37:38.881Z,-21782.67
2019-03-22T18:40:09.385Z,-21725.54
2019-03-22T18:42:37.706Z,-21738.12
2019-03-22T18:45:08.385Z,-21767.38
2019-03-22T18:47:36.772Z,-21759.37
2019-03-22T18:50:09.762Z,-21777.44
2019-03-22T18:52:38.036Z,-21756.48
2019-03-22T18:55:07.225Z,-21756.89
2019-03-22T18:57:36.302Z,-21750.54
2019-03-22T19:00:10.174Z,-21745.16
2019-03-22T19:02:38.446Z,-21746.68
2019-03-22T19:05:07.756Z,-21744.61
2019-03-22T19:07:36.016Z,-21741.98
2019-03-22T19:10:07.091Z,-21720.02
2019-03-22T19:12:35.371Z,-21701.75
2019-03-22T19:15:04.754Z,-21725.68
2019-03-22T19:17:35.422Z,-21720.02
2019-03-22T19:20:08.178Z,-21692.75
2019-03-22T19:22:36.530Z,-21711.43
2019-03-22T19:25:05.930Z,-21696.35
2019-03-22T19:27:34.208Z,-21727.20
2019-03-22T19:30:03.155Z,-21731.35
2019-03-22T19:32:31.493Z,-21735.49
2019-03-22T19:34:59.892Z,-21690.40
2019-03-22T19:37:28.220Z,-21678.90
2019-03-22T19:39:56.496Z,-21668.78
2019-03-22T19:42:24.785Z,-21664.06
2019-03-22T19:44:53.067Z,-21650.60
2019-03-22T19:47:23.681Z,-21701.06
2019-03-22T19:49:51.344Z,-21703.28
2019-03-22T19:52:19.625Z,-21698.02
2019-03-22T19:54:47.919Z,-21709.09
2019-03-22T19:57:16.205Z,-21678.90
2019-03-22T19:59:44.490Z,-21667.67
2019-03-22T20:02:12.883Z,-21672.53
2019-03-22T20:04:41.164Z,-21697.73
2019-03-22T20:07:09.506Z,-21691.78
2019-03-22T20:09:37.793Z,-21694.96
2019-03-22T20:12:06.060Z,-21695.52
2019-03-22T20:14:34.332Z,-21685.55
2019-03-22T20:17:02.615Z,-21679.31
2019-03-22T20:19:30.905Z,-21656.57
2019-03-22T20:21:59.194Z,-21678.34
2019-03-22T20:24:27.534Z,-21677.79
2019-03-22T20:26:55.931Z,-21682.09
2019-03-22T20:29:24.219Z,-21686.66
2019-03-22T20:31:52.743Z,-21681.25
2019-03-22T20:34:21.028Z,-21675.71
2019-03-22T20:36:49.325Z,-21660.18
2019-03-22T20:39:17.640Z,-21680.84
2019-03-22T20:41:45.992Z,-21663.92
2019-03-22T20:44:14.355Z,-21680.42
2019-03-22T20:46:42.645Z,-21680.56
2019-03-22T20:49:10.958Z,-21676.40
2019-03-22T20:51:39.240Z,-21644.63
2019-03-22T20:54:07.511Z,-21672.25
2019-03-22T20:56:35.783Z,-21700.09
2019-03-22T20:59:04.150Z,-21638.38
2019-03-22T21:01:32.436Z,-21647.27
2019-03-22T21:04:00.698Z,-21656.57
2019-03-22T21:06:28.975Z,-21656.43
2019-03-22T21:08:57.267Z,-21626.29
2019-03-22T21:11:26.735Z,-21589.01
2019-03-22T21:13:54.992Z,-21639.22
2019-03-22T21:16:23.258Z,-21641.44
2019-03-22T21:18:51.532Z,-21644.08
2019-03-22T21:21:19.805Z,-21638.38
2019-03-22T21:23:48.090Z,-21632.13
2019-03-22T21:26:16.391Z,-21637.83
2019-03-22T21:28:44.667Z,-21614.89
2019-03-22T21:31:13.002Z,-21583.85
2019-03-22T21:33:41.285Z,-21625.60
2019-03-22T21:36:09.609Z,-21610.02
2019-03-22T21:38:37.964Z,-21594.99
2019-03-22T21:41:06.240Z,-21614.33
2019-03-22T21:43:34.503Z,-21591.38
2019-03-22T21:46:02.867Z,-21635.05
2019-03-22T21:48:31.126Z,-21623.10
2019-03-22T21:50:59.392Z,-21608.91
2019-03-22T21:53:27.659Z,-21618.78
2019-03-22T21:55:55.924Z,-21635.88
2019-03-22T21:58:24.300Z,-21614.75
2019-03-22T22:00:52.669Z,-21593.18
2019-03-22T22:03:20.961Z,-21572.14
2019-03-22T22:05:49.322Z,-21602.79
2019-03-22T22:08:17.589Z,-21611.83
2019-03-22T22:10:45.877Z,-21641.86
2019-03-22T22:13:14.154Z,-21643.66
2019-03-22T22:15:42.418Z,-21577.44
2019-03-22T22:18:10.694Z,-21562.80
2019-03-22T22:20:38.981Z,-21598.89
2019-03-22T22:23:07.261Z,-21577.44
2019-03-22T22:25:35.559Z,-21566.71
2019-03-22T22:28:03.854Z,-21561.96
2019-03-22T22:30:32.153Z,-21565.17
2019-03-22T22:33:00.415Z,-21549.55
2019-03-22T22:35:28.677Z,-21554.16
2019-03-22T22:37:57.032Z,-21534.75
2019-03-22T22:40:25.324Z,-21566.29
2019-03-22T22:42:53.608Z,-21574.37
2019-03-22T22:45:21.852Z,-21557.36
2019-03-22T22:47:50.128Z,-21583.85
2019-03-22T22:50:18.423Z,-21609.05
2019-03-22T22:52:49.269Z,-21611.00
2019-03-22T22:55:17.550Z,-21621.99
2019-03-22T22:57:45.862Z,-21586.36
2019-03-22T23:00:16.550Z,-21610.86
2019-03-22T23:02:45.263Z,-21582.59
2019-03-22T23:05:13.600Z,-21593.88
2019-03-22T23:07:41.879Z,-21622.54
2019-03-22T23:10:12.616Z,-21563.63
2019-03-22T23:12:40.266Z,-21558.61
2019-03-22T23:15:09.294Z,-21563.22
2019-03-22T23:17:37.555Z,-21603.21
2019-03-22T23:20:07.146Z,-21610.58
2019-03-22T23:22:35.418Z,-21605.85
2019-03-22T23:25:04.880Z,-21611.83
2019-03-22T23:27:33.159Z,-21548.43
2019-03-22T23:30:01.435Z,-21562.24
2019-03-22T23:32:29.708Z,-21573.54
2019-03-22T23:34:59.173Z,-21565.59
2019-03-22T23:37:27.836Z,-21572.00
2019-03-22T23:39:56.092Z,-21571.17
2019-03-22T23:42:24.380Z,-21547.59
2019-03-22T23:44:52.649Z,-21562.38
2019-03-22T23:47:20.960Z,-21589.98
2019-03-22T23:49:49.250Z,-21556.52
2019-03-22T23:52:17.570Z,-21571.87
2019-03-22T23:54:45.849Z,-21571.87
2019-03-22T23:57:14.131Z,-21575.91
2019-03-22T23:59:42.386Z,-21555.41
